Thunder radar more information blitzortung!


Radar de pluja more information rain snow radar


Visita la nostra xarxa de llocs de meteo:

Template documentation
and downloads

And another site



No particular awareness of the weather is required.    There are no Weather-warnings

Pagina Historial Weather Underground text

Diari Resum May 22, 2017 Unitats:  Imperial    Mètric   Tant
« Previous Dia
SegĂźent Dia »
Diari Setmana Mensual Anual Personalitzada
  Maxima: Minima: Media:
Temperatura: TemperatureC °F 15.6 °F 22.6 °F
Punt de rosada: DewpointC °F 8.8 °F 11 °F
Humitat: Humidity % 36 % 49 %
Wind Speed: WindSpeedKMH mph 0.0 mph 7.2 mph
RĂ fegues de vent: WindSpeedGustKMH mph - -
Vent:- - SSW
Pression baro: PressurehPa in 1015.8 in -
Precipitacions: 0.0 in    
Historical Graphs
 
 
Dades de taula per May 22, 2017
Temps Temperatura Punt de rosada Pression baro Vent Wind Speed RĂ fegues de vent Humitat Rainfall Rate (Hourly)
TemperatureC °F DewpointC °F PressurehPa in Calm     Humidity % HourlyPrecipMM in
00:01 17.0 °F 9.7 °F 1019.9 in SW 3.7 mph 3.7 mph 62 % 0.0 in
00:06 16.9 °F 9.8 °F 1019.9 in SW 2.3 mph 2.3 mph 63 % 0.0 in
00:11 16.9 °F 10.1 °F 1019.9 in Calm     64 % 0.0 in
00:16 16.9 °F 10.1 °F 1019.9 in SW 1.9 mph   64 % 0.0 in
04:40 20.0 °F 13.2 °F 1019.9 in SW 3.2 mph 3.2 mph 65 % 0.0 in
04:50 20.7 °F 13.7 °F 1019.9 in SW 1.6 mph 4.8 mph 64 % 0.0 in
04:55 20.4 °F 13.1 °F 1018.8 in SSW 4.8 mph 9.7 mph 63 % 0.0 in
05:05 20.9 °F 13.1 °F 1018.8 in SSW 3.2 mph 9.7 mph 61 % 0.0 in
05:15 21.0 °F 12.4 °F 1018.8 in SSW 4.8 mph 8.0 mph 58 % 0.0 in
05:25 21.2 °F 12.6 °F 1018.8 in SSW 3.2 mph 12.9 mph 58 % 0.0 in
10:33 21.9 °F 12.7 °F 1018.8 in SSW 7.4 mph 7.4 mph 56 % 0.0 in
10:38 22.1 °F 12.3 °F 1018.8 in SW 7.4 mph 7.4 mph 54 % 0.0 in
10:43 22.8 °F 13.0 °F 1018.8 in SW 7.4 mph 7.4 mph 54 % 0.0 in
10:48 22.6 °F 12.8 °F 1018.8 in West 7.4 mph 7.4 mph 54 % 0.0 in
10:53 23.1 °F 12.7 °F 1018.8 in SW 8.7 mph 8.7 mph 52 % 0.0 in
10:58 23.5 °F 12.8 °F 1018.8 in SSW 9.3 mph 9.3 mph 51 % 0.0 in
11:03 23.9 °F 12.8 °F 1018.8 in WSW 5.6 mph 5.6 mph 50 % 0.0 in
11:08 23.5 °F 12.5 °F 1018.8 in SW 11.1 mph 11.1 mph 50 % 0.0 in
11:13 23.4 °F 11.8 °F 1018.8 in SSW 13.0 mph 13.0 mph 48 % 0.0 in
11:18 23.6 °F 11.6 °F 1018.8 in SW 9.3 mph 9.3 mph 47 % 0.0 in
11:23 23.7 °F 11.7 °F 1019.9 in SSW 9.3 mph 9.3 mph 47 % 0.0 in
11:28 24.3 °F 12.3 °F 1019.9 in SW 7.9 mph 7.9 mph 47 % 0.0 in
11:33 24.1 °F 12.1 °F 1019.9 in ESE 9.3 mph 9.3 mph 47 % 0.0 in
11:38 24.1 °F 12.1 °F 1018.8 in SSE 9.3 mph 9.3 mph 47 % 0.0 in
11:43 24.4 °F 12.0 °F 1018.8 in South 13.0 mph 13.0 mph 46 % 0.0 in
11:48 24.2 °F 11.8 °F 1018.8 in WSW 7.4 mph 7.4 mph 46 % 0.0 in
11:53 25.0 °F 12.6 °F 1018.8 in WSW 5.6 mph 5.6 mph 46 % 0.0 in
11:58 24.4 °F 12.0 °F 1018.8 in SW 13.0 mph 13.0 mph 46 % 0.0 in
12:03 24.4 °F 12.3 °F 1018.8 in WSW 7.2 mph 7.2 mph 47 % 0.0 in
12:08 24.4 °F 12.3 °F 1018.8 in SSW 14.8 mph 14.8 mph 47 % 0.0 in
12:13 24.7 °F 12.9 °F 1018.8 in SW 9.3 mph 9.3 mph 48 % 0.0 in
12:18 24.2 °F 12.2 °F 1018.8 in SW 14.8 mph 14.8 mph 47 % 0.0 in
12:23 24.5 °F 12.4 °F 1018.8 in South 14.8 mph 14.8 mph 47 % 0.0 in
12:28 25.0 °F 12.6 °F 1018.8 in SW 9.3 mph 9.3 mph 46 % 0.0 in
12:33 25.4 °F 12.9 °F 1018.8 in West 11.9 mph 11.9 mph 46 % 0.0 in
12:38 24.8 °F 12.1 °F 1018.8 in West 13.0 mph 13.0 mph 45 % 0.0 in
12:43 24.9 °F 12.2 °F 1018.8 in SW 13.0 mph 13.0 mph 45 % 0.0 in
12:48 25.1 °F 12.3 °F 1018.8 in SSW 15.8 mph 15.8 mph 45 % 0.0 in
12:53 24.9 °F 12.2 °F 1018.8 in SW 9.3 mph 9.3 mph 45 % 0.0 in
12:54 25.0 °F 11.9 °F 1018.8 in SW 9.3 mph 9.3 mph 44 % 0.0 in
12:59 25.3 °F 11.8 °F 1018.8 in SSW 13.0 mph 13.0 mph 43 % 0.0 in
13:04 25.6 °F 12.4 °F 1018.8 in SSE 9.7 mph 9.7 mph 44 % 0.0 in
13:09 25.3 °F 12.2 °F 1017.8 in SSW 14.8 mph 14.8 mph 44 % 0.0 in
13:14 25.0 °F 11.9 °F 1017.8 in SW 13.0 mph 13.0 mph 44 % 0.0 in
13:19 25.3 °F 12.2 °F 1017.8 in SW 11.1 mph 11.1 mph 44 % 0.0 in
13:24 25.2 °F 12.1 °F 1018.8 in SW 11.1 mph 11.1 mph 44 % 0.0 in
13:29 25.6 °F 12.4 °F 1018.8 in South 9.3 mph 9.3 mph 44 % 0.0 in
13:34 26.2 °F 13.0 °F 1018.8 in SW 6.9 mph 6.9 mph 44 % 0.0 in
13:39 26.3 °F 13.1 °F 1018.8 in West 9.3 mph 9.3 mph 44 % 0.0 in
13:44 26.5 °F 13.3 °F 1018.8 in WSW 9.3 mph 9.3 mph 44 % 0.0 in
13:49 26.3 °F 13.1 °F 1018.8 in SSW 10.0 mph 10.0 mph 44 % 0.0 in
13:54 26.1 °F 12.9 °F 1018.8 in WSW 11.1 mph 11.1 mph 44 % 0.0 in
13:59 26.1 °F 12.6 °F 1018.8 in SSW 9.3 mph 9.3 mph 43 % 0.0 in
14:04 26.1 °F 12.6 °F 1018.8 in WSW 9.3 mph 9.3 mph 43 % 0.0 in
14:09 26.5 °F 12.9 °F 1018.8 in SSW 9.7 mph 9.7 mph 43 % 0.0 in
14:14 26.1 °F 12.6 °F 1018.8 in SW 10.0 mph 10.0 mph 43 % 0.0 in
14:19 26.4 °F 12.8 °F 1018.8 in NW 9.3 mph 9.3 mph 43 % 0.0 in
14:24 26.5 °F 12.9 °F 1017.8 in SW 7.4 mph 7.4 mph 43 % 0.0 in
14:29 26.5 °F 12.9 °F 1017.8 in WSW 9.0 mph 9.0 mph 43 % 0.0 in
14:34 26.9 °F 12.9 °F 1017.8 in West 13.0 mph 13.0 mph 42 % 0.0 in
14:39 26.7 °F 12.7 °F 1017.8 in East 11.1 mph 11.1 mph 42 % 0.0 in
14:44 26.6 °F 12.6 °F 1017.8 in SW 9.3 mph 9.3 mph 42 % 0.0 in
14:49 27.1 °F 12.7 °F 1017.8 in SSW 11.1 mph 11.1 mph 41 % 0.0 in
14:54 27.2 °F 12.8 °F 1017.8 in WSW 10.0 mph 10.0 mph 41 % 0.0 in
14:59 26.7 °F 12.7 °F 1017.8 in WSW 9.3 mph 9.3 mph 42 % 0.0 in
15:04 26.6 °F 12.3 °F 1017.8 in WSW 13.0 mph 13.0 mph 41 % 0.0 in
15:09 27.4 °F 13.0 °F 1017.8 in SSE 9.3 mph 9.3 mph 41 % 0.0 in
15:14 27.7 °F 13.3 °F 1017.8 in SSE 7.4 mph 7.4 mph 41 % 0.0 in
15:19 27.2 °F 12.4 °F 1017.8 in WSW 13.0 mph 13.0 mph 40 % 0.0 in
15:24 27.0 °F 12.2 °F 1017.8 in SW 9.5 mph 9.5 mph 40 % 0.0 in
15:29 27.1 °F 12.3 °F 1017.8 in SSW 5.6 mph 5.6 mph 40 % 0.0 in
15:34 27.3 °F 12.1 °F 1017.8 in WSW 11.1 mph 11.1 mph 39 % 0.0 in
15:39 27.7 °F 12.5 °F 1017.8 in SE 4.7 mph 4.7 mph 39 % 0.0 in
15:44 27.8 °F 12.6 °F 1017.8 in WSW 7.4 mph 7.4 mph 39 % 0.0 in
15:49 27.6 °F 12.0 °F 1017.8 in SSW 11.1 mph 11.1 mph 38 % 0.0 in
15:54 27.2 °F 11.7 °F 1017.8 in WSW 9.3 mph 9.3 mph 38 % 0.0 in
15:59 27.5 °F 12.3 °F 1017.8 in WSW 11.1 mph 11.1 mph 39 % 0.0 in
16:04 27.6 °F 12.0 °F 1017.8 in WSW 18.5 mph 18.5 mph 38 % 0.0 in
16:09 27.5 °F 11.9 °F 1017.8 in SSE 11.1 mph 11.1 mph 38 % 0.0 in
16:14 27.8 °F 12.2 °F 1017.8 in SW 5.6 mph 5.6 mph 38 % 0.0 in
16:19 28.1 °F 12.4 °F 1017.8 in SW 9.3 mph 9.3 mph 38 % 0.0 in
16:24 28.2 °F 12.1 °F 1016.8 in SW 9.3 mph 9.3 mph 37 % 0.0 in
16:29 28.1 °F 12.1 °F 1016.8 in SSW 3.7 mph 6.1 mph 37 % 0.0 in
16:31 28.4 °F 12.3 °F 1016.8 in South 9.3 mph 9.3 mph 37 % 0.0 in
16:36 28.5 °F 12.4 °F 1016.8 in SW 5.6 mph 5.6 mph 37 % 0.0 in
16:41 27.4 °F 11.4 °F 1017.8 in SSW 13.0 mph 13.0 mph 37 % 0.0 in
16:46 27.3 °F 11.3 °F 1017.8 in SW 14.8 mph 14.8 mph 37 % 0.0 in
16:51 27.2 °F 11.2 °F 1017.8 in WSW 13.0 mph 13.0 mph 37 % 0.0 in
16:56 27.0 °F 10.7 °F 1017.8 in SW 18.5 mph 18.5 mph 36 % 0.0 in
17:01 26.7 °F 10.8 °F 1017.8 in SSW 9.3 mph 9.3 mph 37 % 0.0 in
17:06 26.8 °F 10.9 °F 1017.8 in SW 11.1 mph 11.1 mph 37 % 0.0 in
17:11 26.7 °F 10.8 °F 1017.8 in SSW 13.0 mph 13.0 mph 37 % 0.0 in
17:16 27.4 °F 11.0 °F 1017.8 in WSW 9.3 mph 9.3 mph 36 % 0.0 in
17:21 26.9 °F 11.0 °F 1017.8 in SW 16.7 mph 16.7 mph 37 % 0.0 in
17:26 26.5 °F 10.6 °F 1017.8 in SSE 20.4 mph 20.4 mph 37 % 0.0 in
17:31 26.3 °F 10.4 °F 1017.8 in SW 16.7 mph 16.7 mph 37 % 0.0 in
17:36 25.9 °F 10.1 °F 1017.8 in SSW 14.8 mph 14.8 mph 37 % 0.0 in
17:42 25.9 °F 10.1 °F 1016.8 in WSW 16.7 mph 16.7 mph 37 % 0.0 in
17:47 25.5 °F 9.7 °F 1016.8 in WSW 14.8 mph 14.8 mph 37 % 0.0 in
17:52 25.3 °F 9.6 °F 1016.8 in SSW 13.0 mph 13.0 mph 37 % 0.0 in
17:57 25.4 °F 9.7 °F 1017.8 in WSW 11.1 mph 11.1 mph 37 % 0.0 in
18:02 25.3 °F 9.6 °F 1017.8 in West 14.8 mph 14.8 mph 37 % 0.0 in
18:07 25.2 °F 9.4 °F 1017.8 in SW 9.3 mph 9.3 mph 37 % 0.0 in
18:12 24.9 °F 9.6 °F 1017.8 in SW 11.1 mph 11.1 mph 38 % 0.0 in
18:17 24.7 °F 9.4 °F 1017.8 in South 11.1 mph 11.1 mph 38 % 0.0 in
18:22 24.8 °F 9.5 °F 1017.8 in WSW 9.5 mph 9.5 mph 38 % 0.0 in
18:27 24.6 °F 9.3 °F 1017.8 in SW 16.7 mph 16.7 mph 38 % 0.0 in
18:32 24.7 °F 9.4 °F 1017.8 in SSE 9.3 mph 9.3 mph 38 % 0.0 in
18:37 24.7 °F 9.4 °F 1016.8 in WSW 14.8 mph 14.8 mph 38 % 0.0 in
18:42 24.3 °F 9.4 °F 1016.8 in SW 12.6 mph 12.6 mph 39 % 0.0 in
18:47 24.4 °F 9.6 °F 1016.8 in WSW 11.1 mph 11.1 mph 39 % 0.0 in
18:52 24.5 °F 9.6 °F 1016.8 in SW 10.3 mph 10.3 mph 39 % 0.0 in
18:57 24.4 °F 9.6 °F 1016.8 in SW 7.4 mph 7.4 mph 39 % 0.0 in
19:02 24.5 °F 9.6 °F 1016.8 in WSW 7.4 mph 7.4 mph 39 % 0.0 in
19:07 24.4 °F 9.6 °F 1017.8 in SSW 9.3 mph 9.3 mph 39 % 0.0 in
19:12 24.3 °F 9.8 °F 1017.8 in SW 7.9 mph 7.9 mph 40 % 0.0 in
19:17 24.1 °F 9.3 °F 1017.8 in SW 9.3 mph 9.3 mph 39 % 0.0 in
19:22 24.1 °F 9.7 °F 1015.8 in SW 5.6 mph 5.6 mph 40 % 0.0 in
19:25 17.1 °F 9.8 °F 1018.8 in WSW 1.6 mph 3.2 mph 62 % 0.0 in
19:27 23.9 °F 9.5 °F 1015.8 in SW 7.4 mph 7.4 mph 40 % 0.0 in
19:32 23.8 °F 9.4 °F 1015.8 in SSW 5.6 mph 5.6 mph 40 % 0.0 in
19:35 17.0 °F 9.9 °F 1018.8 in WSW 1.6 mph 3.2 mph 63 % 0.0 in
19:37 23.8 °F 9.4 °F 1015.8 in SW 9.5 mph 9.5 mph 40 % 0.0 in
19:43 23.6 °F 9.2 °F 1015.8 in SW 11.1 mph 11.1 mph 40 % 0.0 in
19:45 16.8 °F 9.9 °F 1018.8 in WSW 3.2 mph 4.8 mph 64 % 0.0 in
19:48 23.5 °F 9.1 °F 1015.8 in WSW 5.6 mph 5.6 mph 40 % 0.0 in
19:53 23.4 °F 9.0 °F 1015.8 in WSW 7.9 mph 7.9 mph 40 % 0.0 in
19:55 16.7 °F 9.8 °F 1019.9 in Calm   1.6 mph 64 % 0.0 in
19:58 23.2 °F 8.8 °F 1015.8 in SW 5.6 mph 5.6 mph 40 % 0.0 in
20:03 23.1 °F 8.8 °F 1015.8 in WSW 3.7 mph 3.7 mph 40 % 0.0 in
20:05 16.6 °F 9.8 °F 1019.9 in Calm     64 % 0.0 in
20:08 23.1 °F 8.8 °F 1015.8 in WSW 3.7 mph   40 % 0.0 in
20:13 23.1 °F 8.8 °F 1015.8 in WNW 3.7 mph 3.7 mph 40 % 0.0 in
20:15 16.6 °F 9.8 °F 1019.9 in Calm     64 % 0.0 in
20:18 22.8 °F 8.8 °F 1015.8 in WSW 5.6 mph 5.6 mph 41 % 0.0 in
20:20 22.8 °F 8.8 °F 1015.8 in West 3.7 mph 3.7 mph 41 % 0.0 in
20:25 22.7 °F 8.8 °F 1015.8 in Calm   3.2 mph 41 % 0.0 in
20:26 22.5 °F 8.9 °F 1015.8 in SE 3.7 mph 3.7 mph 42 % 0.0 in
20:29 22.1 °F 8.9 °F 1015.8 in East 7.4 mph 7.4 mph 43 % 0.0 in
20:31 21.9 °F 9.1 °F 1015.8 in East 7.4 mph 7.4 mph 44 % 0.0 in
20:35 16.5 °F 10.1 °F 1019.9 in ENE 1.6 mph 3.2 mph 66 % 0.0 in
20:36 21.6 °F 9.2 °F 1015.8 in ESE 9.3 mph 9.3 mph 45 % 0.0 in
20:41 21.4 °F 9.3 °F 1015.8 in East 9.3 mph 9.3 mph 46 % 0.0 in
20:42 21.4 °F 9.3 °F 1015.8 in East 9.3 mph 9.3 mph 46 % 0.0 in
20:45 16.2 °F 9.8 °F 1018.8 in Calm   1.6 mph 66 % 0.0 in
20:47 21.2 °F 9.4 °F 1015.8 in ESE 7.4 mph 7.4 mph 47 % 0.0 in
20:52 21.0 °F 9.6 °F 1015.8 in ESE 7.4 mph 7.4 mph 48 % 0.0 in
20:55 16.2 °F 10.1 °F 1019.9 in Calm     67 % 0.0 in
20:57 20.8 °F 9.7 °F 1015.8 in ENE 5.6 mph 5.6 mph 49 % 0.0 in
21:02 20.6 °F 9.8 °F 1015.8 in NE 3.7 mph 3.7 mph 50 % 0.0 in
21:05 16.3 °F 10.4 °F 1019.9 in NE 1.6 mph 4.8 mph 68 % 0.0 in
21:07 20.5 °F 10.0 °F 1016.8 in ENE 3.9 mph 3.9 mph 51 % 0.0 in
21:12 20.4 °F 9.9 °F 1016.8 in ENE 5.6 mph 5.6 mph 51 % 0.0 in
21:15 16.1 °F 10.4 °F 1019.9 in Calm   1.6 mph 69 % 0.0 in
21:17 20.3 °F 10.1 °F 1016.8 in ESE 3.9 mph 3.9 mph 52 % 0.0 in
21:23 20.2 °F 10.0 °F 1017.8 in East 3.7 mph 3.7 mph 52 % 0.0 in
21:25 16.0 °F 10.3 °F 1019.9 in Calm   1.6 mph 69 % 0.0 in
21:28 20.2 °F 10.0 °F 1017.8 in SW 1.9 mph 1.9 mph 52 % 0.0 in
21:33 20.1 °F 9.9 °F 1017.8 in WSW 3.7 mph   52 % 0.0 in
21:35 16.0 °F 10.6 °F 1019.9 in Calm     70 % 0.0 in
21:38 20.0 °F 9.8 °F 1017.8 in Calm     52 % 0.0 in
21:43 19.9 °F 10.1 °F 1017.8 in NNE 3.7 mph 3.7 mph 53 % 0.0 in
21:45 16.0 °F 10.7 °F 1019.9 in Calm     71 % 0.0 in
21:48 19.9 °F 10.3 °F 1017.8 in NNE 3.9 mph 3.9 mph 54 % 0.0 in
21:53 19.9 °F 10.3 °F 1017.8 in NE 5.6 mph 5.6 mph 54 % 0.0 in
21:55 16.0 °F 10.9 °F 1019.9 in NNE 1.6 mph 1.6 mph 72 % 0.0 in
21:58 19.7 °F 10.4 °F 1017.8 in ENE 5.6 mph 5.6 mph 55 % 0.0 in
22:03 19.5 °F 10.2 °F 1017.8 in NNE 5.6 mph 5.6 mph 55 % 0.0 in
22:05 16.0 °F 11.2 °F 1019.9 in NE 1.6 mph 3.2 mph 73 % 0.0 in
22:08 19.4 °F 10.4 °F 1017.8 in East 3.7 mph 3.7 mph 56 % 0.0 in
22:13 19.3 °F 10.3 °F 1017.8 in NNE 5.6 mph 5.6 mph 56 % 0.0 in
22:15 15.9 °F 11.3 °F 1019.9 in Calm   3.2 mph 74 % 0.0 in
22:18 19.2 °F 10.4 °F 1017.8 in ENE 3.7 mph 3.7 mph 57 % 0.0 in
22:23 19.1 °F 10.4 °F 1018.8 in NE 3.7 mph 3.7 mph 57 % 0.0 in
22:25 15.9 °F 11.3 °F 1019.9 in Calm   1.6 mph 74 % 0.0 in
22:28 19.1 °F 10.4 °F 1018.8 in East 3.7 mph 3.7 mph 57 % 0.0 in
22:33 19.0 °F 10.3 °F 1018.8 in West 3.7 mph 3.7 mph 57 % 0.0 in
22:35 15.9 °F 11.3 °F 1019.9 in Calm   1.6 mph 74 % 0.0 in
22:38 18.8 °F 10.3 °F 1018.8 in SW 3.7 mph 3.7 mph 58 % 0.0 in
22:43 18.6 °F 10.4 °F 1018.8 in WSW 1.9 mph   59 % 0.0 in
22:45 15.9 °F 11.3 °F 1018.8 in NNW 1.6 mph 3.2 mph 74 % 0.0 in
22:48 18.6 °F 10.4 °F 1018.8 in Calm     59 % 0.0 in
22:53 18.5 °F 10.3 °F 1018.8 in Calm     59 % 0.0 in
22:55 15.9 °F 11.4 °F 1019.9 in Calm   1.6 mph 75 % 0.0 in
22:59 18.5 °F 10.3 °F 1018.8 in WSW 1.9 mph   59 % 0.0 in
23:04 18.5 °F 10.6 °F 1018.8 in Calm     60 % 0.0 in
23:05 15.9 °F 11.4 °F 1019.9 in WNW 1.6 mph 3.2 mph 75 % 0.0 in
23:09 18.5 °F 10.6 °F 1018.8 in Calm     60 % 0.0 in
23:14 18.4 °F 10.5 °F 1018.8 in Calm     60 % 0.0 in
23:15 15.8 °F 11.6 °F 1018.8 in Calm   1.6 mph 76 % 0.0 in
23:19 18.4 °F 10.7 °F 1018.8 in Calm     61 % 0.0 in
23:24 18.4 °F 10.7 °F 1018.8 in NNE 1.9 mph 1.9 mph 61 % 0.0 in
23:25 15.6 °F 11.4 °F 1019.9 in Calm   3.2 mph 76 % 0.0 in
23:30 18.3 °F 10.7 °F 1018.8 in NNW 1.9 mph 1.9 mph 61 % 0.0 in
23:35 18.3 °F 10.7 °F 1018.8 in NE 3.2 mph   61 % 0.0 in
23:40 18.3 °F 10.7 °F 1018.8 in NNE 3.5 mph   61 % 0.0 in
23:45 18.2 °F 10.6 °F 1018.8 in NE 1.6 mph 4.8 mph 61 % 0.0 in
23:50 18.0 °F 10.6 °F 1018.8 in NE 3.7 mph 3.7 mph 62 % 0.0 in
23:55 17.9 °F 10.5 °F 1018.8 in ENE 2.6 mph 2.6 mph 62 % 0.0 in
Meteo Sesrovires
Elogis d' Weather Underground - 1.5 mb

Guio original per  Jim McMurry - jmcmurry@mwt.net Adaptat per a la plantilla per  Wim van der Kuil - Leuven-Template.eu

Trobareu la nostra informacio del temps tambe a:

Weather Underground

AWEKAS